createdAt,value
2022-12-20T00:04:41.284Z,96.52356
2022-12-20T00:09:43.336Z,95.62197
2022-12-20T00:14:45.392Z,93.42553
2022-12-20T00:19:47.453Z,98.59971
2022-12-20T00:24:49.375Z,99.71826
2022-12-20T00:29:51.435Z,99.2936
2022-12-20T00:34:53.588Z,100
2022-12-20T00:39:55.501Z,98.48994
2022-12-20T00:44:57.448Z,97.37435
2022-12-20T00:49:59.453Z,99.92837
2022-12-20T00:55:01.507Z,100
2022-12-20T01:00:03.376Z,100
2022-12-20T01:05:05.293Z,100
2022-12-20T01:10:07.094Z,100
2022-12-20T01:15:08.961Z,100
2022-12-20T01:20:10.963Z,100
2022-12-20T01:25:13.246Z,100
2022-12-20T01:30:15.096Z,100
2022-12-20T01:35:16.602Z,100
2022-12-20T01:40:18.349Z,100
2022-12-20T01:45:20.087Z,100
2022-12-20T01:50:21.844Z,100
2022-12-20T01:55:23.582Z,100
2022-12-20T02:00:25.247Z,100
2022-12-20T02:05:26.955Z,100
2022-12-20T02:10:28.716Z,100
2022-12-20T02:15:30.285Z,100
2022-12-20T02:20:32.073Z,100
2022-12-20T02:25:33.759Z,100
2022-12-20T02:30:35.261Z,100
2022-12-20T02:35:36.872Z,100
2022-12-20T02:40:38.416Z,97.22283
2022-12-20T02:45:40.158Z,100
2022-12-20T02:50:42.043Z,95.35427
2022-12-20T02:55:43.596Z,96.99588
2022-12-20T03:00:45.353Z,99.2602
2022-12-20T03:05:46.906Z,96.64971
2022-12-20T03:10:48.659Z,100
2022-12-20T03:15:50.256Z,99.38657
2022-12-20T03:20:51.974Z,98.7075
2022-12-20T03:25:53.986Z,97.50442
2022-12-20T03:30:55.632Z,98.34531
2022-12-20T03:35:57.462Z,97.13926
2022-12-20T03:40:59.465Z,98.70337
2022-12-20T03:46:01.417Z,94.9015
2022-12-20T03:51:03.127Z,100
2022-12-20T03:56:04.947Z,100
2022-12-20T04:01:06.666Z,99.03619
2022-12-20T04:06:08.212Z,100
2022-12-20T04:11:09.815Z,100
2022-12-20T04:16:11.555Z,100
2022-12-20T04:21:13.538Z,100
2022-12-20T04:26:15.057Z,100
2022-12-20T04:31:23.307Z,100
2022-12-20T04:36:25.599Z,100
2022-12-20T04:41:27.148Z,98.48922
2022-12-20T04:46:28.733Z,98.8878
2022-12-20T04:51:30.451Z,94.70572
2022-12-20T04:56:32.191Z,93.74263
2022-12-20T05:01:33.932Z,87.49789
2022-12-20T05:06:35.807Z,81.357
2022-12-20T05:11:37.741Z,74.63392
2022-12-20T05:16:40.092Z,71.67297
2022-12-20T05:21:42.326Z,69.19117
2022-12-20T05:26:44.190Z,70.38238
2022-12-20T05:31:45.839Z,75.36141
2022-12-20T05:36:47.646Z,66.50232
2022-12-20T05:41:49.448Z,65.05243
2022-12-20T05:46:51.304Z,61.08892
2022-12-20T05:51:53.436Z,62.35073
2022-12-20T05:56:55.604Z,58.81478
2022-12-20T06:01:57.590Z,57.64671
2022-12-20T06:06:59.563Z,57.80576
2022-12-20T06:12:01.406Z,58.21539
2022-12-20T06:17:03.176Z,55.60793
2022-12-20T06:22:04.813Z,56.2329
2022-12-20T06:27:07.023Z,57.55309
2022-12-20T06:32:09.272Z,57.57037
2022-12-20T06:37:11.146Z,56.62956
2022-12-20T06:42:13.101Z,58.34937
2022-12-20T06:47:15.052Z,57.28245
2022-12-20T06:52:16.805Z,59.66908
2022-12-20T06:57:18.416Z,54.1343
2022-12-20T07:02:20.132Z,51.51229
2022-12-20T07:07:22.002Z,52.14515
2022-12-20T07:12:23.699Z,54.71668
2022-12-20T07:17:25.433Z,53.23363
2022-12-20T07:22:28.064Z,51.35467
2022-12-20T07:27:29.929Z,50.27808
2022-12-20T07:32:31.644Z,51.29599
2022-12-20T07:37:34.514Z,48.32527
2022-12-20T07:42:39.080Z,51.6518
2022-12-20T07:47:43.080Z,51.52965
2022-12-20T07:52:45.352Z,54.99329
2022-12-20T07:57:47.073Z,55.00703
2022-12-20T08:02:49.086Z,50.83347
2022-12-20T08:07:56.837Z,45.95308
2022-12-20T08:13:00.749Z,44.84951
2022-12-20T08:18:02.244Z,44.70543
2022-12-20T08:23:04.213Z,43.29287
2022-12-20T08:28:06.106Z,46.88137
2022-12-20T08:33:08.015Z,42.43872
2022-12-20T08:38:10.043Z,46.64762
2022-12-20T08:43:11.985Z,43.57365
2022-12-20T08:48:13.968Z,47.63401
2022-12-20T08:53:15.986Z,42.84001
2022-12-20T08:58:17.695Z,41.95156
2022-12-20T09:03:19.542Z,38.88264
2022-12-20T09:08:21.135Z,39.14346
2022-12-20T09:13:22.760Z,39.07837
2022-12-20T09:18:24.355Z,39.91467
2022-12-20T09:23:26.606Z,37.50945
2022-12-20T09:28:28.183Z,33.91583
2022-12-20T09:33:29.866Z,34.89081
2022-12-20T09:38:31.989Z,34.27809
2022-12-20T09:43:33.745Z,38.5521
2022-12-20T09:48:35.248Z,36.61905
2022-12-20T09:53:37.160Z,34.80491
2022-12-20T09:58:38.813Z,29.18596
2022-12-20T10:03:40.615Z,35.99929
2022-12-20T10:08:42.512Z,37.32921
2022-12-20T10:13:44.172Z,36.71002
2022-12-20T10:18:45.818Z,36.5712
2022-12-20T10:23:47.753Z,36.66723
2022-12-20T10:28:54.206Z,34.94583
2022-12-20T10:33:56.797Z,33.12806
2022-12-20T10:38:58.347Z,30.53797
2022-12-20T10:43:59.912Z,34.75054
2022-12-20T10:49:01.971Z,45.26112
2022-12-20T10:54:04.326Z,40.16908
2022-12-20T10:59:06.232Z,38.35772
2022-12-20T11:04:08.396Z,37.23117
2022-12-20T11:09:10.227Z,34.18789
2022-12-20T11:14:12.155Z,34.01673
2022-12-20T11:19:13.905Z,35.22488
2022-12-20T11:24:15.612Z,34.93988
2022-12-20T11:29:17.253Z,29.09189
2022-12-20T11:34:18.836Z,31.73786
2022-12-20T11:39:20.421Z,32.90272
2022-12-20T11:44:25.725Z,30.20372
2022-12-20T11:49:28.334Z,27.28314
2022-12-20T11:54:30.359Z,28.70851
2022-12-20T11:59:32.342Z,25.7285
2022-12-20T12:04:34.371Z,28.01062
2022-12-20T12:09:36.232Z,27.56887
2022-12-20T12:14:38.198Z,26.378
2022-12-20T12:19:40.005Z,25.53304
2022-12-20T12:24:43.024Z,26.34148
2022-12-20T12:29:44.873Z,27.05317
2022-12-20T12:34:46.964Z,24.97592
2022-12-20T12:39:48.865Z,27.81873
2022-12-20T12:44:50.860Z,25.4011
2022-12-20T12:49:52.740Z,25.56231
2022-12-20T12:54:55.061Z,26.18023
2022-12-20T12:59:57.071Z,24.45302
2022-12-20T13:04:58.750Z,23.96115
2022-12-20T13:10:00.572Z,24.44629
2022-12-20T13:15:02.663Z,24.03835
2022-12-20T13:20:04.533Z,22.72197
2022-12-20T13:25:06.539Z,21.21414
2022-12-20T13:30:08.429Z,23.44072
2022-12-20T13:35:10.295Z,23.71673
2022-12-20T13:40:12.369Z,22.77571
2022-12-20T13:45:14.387Z,25.31025
2022-12-20T13:50:16.380Z,24.67611
2022-12-20T13:55:19.517Z,25.96344
2022-12-20T14:00:21.345Z,26.94102
2022-12-20T14:05:22.928Z,25.15491
2022-12-20T14:10:24.474Z,25.78991
2022-12-20T14:15:26.504Z,26.2589
2022-12-20T14:20:28.146Z,26.99726
2022-12-20T14:25:29.942Z,26.1197
2022-12-20T14:30:31.647Z,25.91684
2022-12-20T14:35:33.262Z,26.81855
2022-12-20T14:40:34.863Z,27.06974
2022-12-20T14:45:36.626Z,26.95627
2022-12-20T14:50:38.596Z,27.22078
2022-12-20T14:55:40.631Z,28.3802
2022-12-20T15:00:42.634Z,27.3531
2022-12-20T15:05:44.533Z,28.40527
2022-12-20T15:10:46.490Z,28.31838
2022-12-20T15:15:48.525Z,28.75353
2022-12-20T15:20:50.354Z,29.27291
2022-12-20T15:25:52.314Z,28.51492
2022-12-20T15:30:54.329Z,29.59088
2022-12-20T15:35:56.383Z,29.11263
2022-12-20T15:40:58.325Z,28.35941
2022-12-20T15:46:00.307Z,27.77663
2022-12-20T15:51:02.838Z,27.60661
2022-12-20T15:56:05.139Z,27.13538
2022-12-20T16:01:07.073Z,26.85074
2022-12-20T16:06:08.849Z,28.31791
2022-12-20T16:11:10.704Z,30.14456
2022-12-20T16:16:12.696Z,32.22344
2022-12-20T16:21:14.581Z,31.37218
2022-12-20T16:26:17.605Z,32.86363
2022-12-20T16:31:19.662Z,32.9921
2022-12-20T16:36:21.201Z,34.22876
2022-12-20T16:41:22.730Z,33.9897
2022-12-20T16:46:24.597Z,34.85804
2022-12-20T16:51:26.465Z,34.44331
2022-12-20T16:56:28.474Z,34.94992
2022-12-20T17:01:30.651Z,34.47125
2022-12-20T17:06:32.788Z,35.08299
2022-12-20T17:11:34.643Z,35.10593
2022-12-20T17:16:36.506Z,35.08916
2022-12-20T17:28:52.601Z,36.3553
2022-12-20T17:33:54.578Z,37.1949
2022-12-20T17:38:56.485Z,37.77719
2022-12-20T17:43:58.327Z,38.31689
2022-12-20T17:49:00.139Z,39.03166
2022-12-20T17:54:01.955Z,39.65632
2022-12-20T17:59:03.685Z,39.65205
2022-12-20T18:04:05.886Z,41.20445
2022-12-20T18:09:08.265Z,41.56091
2022-12-20T18:14:09.829Z,42.62284
2022-12-20T18:19:12.092Z,43.10796
2022-12-20T18:24:14.021Z,44.11697
2022-12-20T18:29:16.447Z,45.3698
2022-12-20T18:34:18.619Z,45.50602
2022-12-20T18:39:20.346Z,46.62595
2022-12-20T18:44:23.410Z,48.61138
2022-12-20T18:49:24.975Z,49.02052
2022-12-20T18:54:26.726Z,50.33378
2022-12-20T18:59:28.678Z,49.81075
2022-12-20T19:04:30.257Z,50.53644
2022-12-20T19:09:31.821Z,51.03819
2022-12-20T19:14:33.408Z,51.07253
2022-12-20T19:19:35.043Z,50.94592
2022-12-20T19:24:36.625Z,50.96651
2022-12-20T19:29:38.589Z,51.77022
2022-12-20T19:34:40.712Z,50.12058
2022-12-20T19:39:42.877Z,49.96115
2022-12-20T19:44:44.823Z,49.15933
2022-12-20T19:49:46.854Z,49.74842
2022-12-20T19:54:48.763Z,50.80603
2022-12-20T19:59:55.723Z,50.02274
2022-12-20T20:04:58.489Z,50.86309
2022-12-20T20:10:00.295Z,51.53054
2022-12-20T20:15:03.829Z,51.37052
2022-12-20T20:20:05.860Z,51.51172
2022-12-20T20:25:07.656Z,52.58025
2022-12-20T20:30:12.708Z,52.99393
2022-12-20T20:35:14.776Z,54.30347
2022-12-20T20:40:16.901Z,59.1796
2022-12-20T20:45:18.726Z,62.21933
2022-12-20T20:50:20.700Z,67.51948
2022-12-20T20:55:22.163Z,69.90718
2022-12-20T21:00:23.867Z,77.35721
2022-12-20T21:10:58.006Z,80.83194
2022-12-20T21:15:59.912Z,88.71159
2022-12-20T21:21:02.095Z,90.92579
2022-12-20T21:26:03.920Z,100
2022-12-20T21:31:05.885Z,98.12495
2022-12-20T21:36:07.993Z,96.94111
2022-12-20T21:41:09.889Z,100
2022-12-20T21:46:11.974Z,100
2022-12-20T21:51:13.965Z,100
2022-12-20T21:56:16.000Z,100
2022-12-20T22:01:18.259Z,100
2022-12-20T22:06:20.589Z,100
2022-12-20T22:11:22.246Z,100
2022-12-20T22:16:23.726Z,100
2022-12-20T22:21:25.429Z,100
2022-12-20T22:26:27.029Z,100
2022-12-20T22:31:28.857Z,100
2022-12-20T22:36:30.746Z,100
2022-12-20T22:41:32.679Z,100
2022-12-20T22:46:34.329Z,100
2022-12-20T22:51:35.968Z,100
2022-12-20T22:56:37.904Z,100
2022-12-20T23:01:40.469Z,100
2022-12-20T23:06:43.032Z,100
2022-12-20T23:11:45.287Z,100
2022-12-20T23:16:47.143Z,100
2022-12-20T23:21:49.205Z,100
2022-12-20T23:26:51.188Z,100
2022-12-20T23:31:53.297Z,100
2022-12-20T23:36:55.417Z,100
2022-12-20T23:41:57.480Z,100
2022-12-20T23:46:59.479Z,100
2022-12-20T23:52:01.317Z,100
2022-12-20T23:57:03.232Z,100
